createdAt,value
2022-11-20T00:01:23.786Z,15.30
2022-11-20T00:03:53.315Z,17.08
2022-11-20T00:06:22.217Z,17.00
2022-11-20T00:08:50.027Z,16.10
2022-11-20T00:11:20.059Z,18.33
2022-11-20T00:13:49.548Z,16.17
2022-11-20T00:16:19.025Z,15.25
2022-11-20T00:18:47.481Z,18.25
2022-11-20T00:21:15.967Z,18.80
2022-11-20T00:23:43.956Z,16.25
2022-11-20T00:26:15.123Z,17.02
2022-11-20T00:28:43.505Z,16.95
2022-11-20T00:31:13.313Z,14.38
2022-11-20T00:33:41.095Z,17.00
2022-11-20T00:36:11.682Z,16.48
2022-11-20T00:38:39.379Z,17.90
2022-11-20T00:41:09.141Z,16.10
2022-11-20T00:43:36.823Z,15.45
2022-11-20T00:46:07.690Z,19.13
2022-11-20T00:48:34.901Z,16.38
2022-11-20T00:51:02.797Z,15.20
2022-11-20T00:53:30.028Z,16.15
2022-11-20T00:56:01.911Z,16.15
2022-11-20T00:58:37.286Z,14.70
2022-11-20T01:01:10.286Z,18.42
2022-11-20T01:03:40.461Z,17.40
2022-11-20T01:06:19.701Z,16.08
2022-11-20T01:08:47.657Z,15.80
2022-11-20T01:11:17.941Z,17.05
2022-11-20T01:13:46.801Z,18.38
2022-11-20T01:16:23.088Z,18.75
2022-11-20T01:18:52.830Z,16.45
2022-11-20T01:21:25.505Z,20.92
2022-11-20T01:23:53.928Z,16.60
2022-11-20T01:26:24.581Z,17.63
2022-11-20T01:28:52.512Z,17.80
2022-11-20T01:31:22.799Z,16.20
2022-11-20T01:33:52.408Z,18.58
2022-11-20T01:36:21.796Z,17.50
2022-11-20T01:38:49.540Z,19.55
2022-11-20T01:41:37.023Z,17.20
2022-11-20T01:44:05.811Z,15.55
2022-11-20T01:46:36.262Z,14.70
2022-11-20T01:49:18.044Z,13.52
2022-11-20T01:52:00.267Z,14.93
2022-11-20T01:54:36.736Z,15.50
2022-11-20T01:57:07.094Z,15.25
2022-11-20T01:59:36.691Z,17.60
2022-11-20T02:02:03.989Z,15.95
2022-11-20T02:04:31.325Z,27.48
2022-11-20T02:07:01.999Z,17.10
2022-11-20T02:09:29.691Z,15.40
2022-11-20T02:11:58.368Z,15.75
2022-11-20T02:14:26.404Z,14.98
2022-11-20T02:16:55.495Z,16.90
2022-11-20T02:19:31.148Z,17.45
2022-11-20T02:22:12.041Z,18.13
2022-11-20T02:24:39.520Z,17.02
2022-11-20T02:27:11.268Z,17.52
2022-11-20T02:29:47.572Z,15.88
2022-11-20T02:32:32.654Z,17.38
2022-11-20T02:35:07.182Z,16.73
2022-11-20T02:37:38.046Z,14.85
2022-11-20T02:40:05.683Z,16.35
2022-11-20T02:42:32.818Z,16.58
2022-11-20T02:45:00.121Z,19.58
2022-11-20T02:47:27.393Z,16.70
2022-11-20T02:49:54.612Z,17.30
2022-11-20T02:52:21.796Z,19.95
2022-11-20T02:54:49.005Z,18.50
2022-11-20T02:57:16.251Z,23.02
2022-11-20T02:59:43.379Z,18.27
2022-11-20T03:02:10.458Z,17.42
2022-11-20T03:04:37.811Z,15.85
2022-11-20T03:07:05.754Z,17.80
2022-11-20T03:09:33.082Z,16.77
2022-11-20T03:12:00.385Z,18.20
2022-11-20T03:14:27.518Z,20.65
2022-11-20T03:16:54.811Z,21.27
2022-11-20T03:19:22.037Z,18.90
2022-11-20T03:21:49.470Z,18.40
2022-11-20T03:24:16.544Z,15.90
2022-11-20T03:26:43.816Z,15.57
2022-11-20T03:29:11.186Z,21.40
2022-11-20T03:31:43.169Z,16.88
2022-11-20T03:34:12.037Z,19.52
2022-11-20T03:36:42.957Z,18.17
2022-11-20T03:39:10.639Z,15.43
2022-11-20T03:41:40.282Z,18.00
2022-11-20T03:44:09.824Z,19.40
2022-11-20T03:46:37.616Z,18.10
2022-11-20T03:49:05.538Z,20.50
2022-11-20T03:51:37.132Z,18.00
2022-11-20T03:54:07.084Z,16.98
2022-11-20T03:56:37.733Z,16.23
2022-11-20T03:59:06.019Z,15.05
2022-11-20T04:01:36.118Z,18.27
2022-11-20T04:04:03.974Z,20.60
2022-11-20T04:06:36.252Z,18.13
2022-11-20T04:09:04.407Z,18.70
2022-11-20T04:11:33.690Z,16.30
2022-11-20T04:14:04.470Z,18.00
2022-11-20T04:16:36.358Z,18.00
2022-11-20T04:19:11.897Z,18.90
2022-11-20T04:21:39.440Z,17.52
2022-11-20T04:24:07.085Z,18.92
2022-11-20T04:26:34.905Z,20.35
2022-11-20T04:29:05.156Z,16.38
2022-11-20T04:31:36.244Z,21.90
2022-11-20T04:34:07.938Z,17.48
2022-11-20T04:36:35.578Z,17.83
2022-11-20T04:39:06.686Z,17.55
2022-11-20T04:41:36.811Z,19.63
2022-11-20T04:44:06.419Z,17.50
2022-11-20T04:46:39.319Z,20.58
2022-11-20T04:49:07.476Z,16.45
2022-11-20T04:51:35.512Z,21.58
2022-11-20T04:54:03.845Z,20.63
2022-11-20T04:56:31.177Z,21.02
2022-11-20T04:59:02.475Z,22.10
2022-11-20T05:01:29.729Z,18.98
2022-11-20T05:03:57.001Z,18.15
2022-11-20T05:06:24.390Z,21.70
2022-11-20T05:08:52.012Z,20.70
2022-11-20T05:11:21.695Z,19.83
2022-11-20T05:13:49.747Z,21.58
2022-11-20T05:16:23.376Z,20.45
2022-11-20T05:18:52.347Z,19.38
2022-11-20T05:21:19.994Z,17.10
2022-11-20T05:23:48.119Z,22.63
2022-11-20T05:26:18.622Z,20.38
2022-11-20T05:28:46.331Z,19.15
2022-11-20T05:31:26.691Z,20.00
2022-11-20T05:33:56.658Z,19.50
2022-11-20T05:36:23.988Z,21.13
2022-11-20T05:38:52.331Z,20.27
2022-11-20T05:41:21.977Z,20.38
2022-11-20T05:43:50.896Z,19.83
2022-11-20T05:46:24.782Z,24.60
2022-11-20T05:48:55.498Z,21.35
2022-11-20T05:51:24.300Z,17.90
2022-11-20T05:53:51.629Z,20.83
2022-11-20T05:56:21.027Z,24.20
2022-11-20T05:58:49.293Z,20.20
2022-11-20T06:01:24.804Z,19.38
2022-11-20T06:03:52.484Z,22.40
2022-11-20T06:06:20.891Z,19.88
2022-11-20T06:08:48.706Z,20.17
2022-11-20T06:11:16.906Z,19.40
2022-11-20T06:13:44.315Z,19.08
2022-11-20T06:16:13.229Z,21.33
2022-11-20T06:18:40.683Z,20.80
2022-11-20T06:21:13.884Z,20.63
2022-11-20T06:23:41.669Z,18.55
2022-11-20T06:26:11.350Z,20.75
2022-11-20T06:28:38.899Z,22.50
2022-11-20T06:31:07.344Z,23.83
2022-11-20T06:33:35.116Z,24.33
2022-11-20T06:36:07.436Z,19.95
2022-11-20T06:38:38.025Z,22.52
2022-11-20T06:41:07.972Z,24.17
2022-11-20T06:43:35.264Z,19.35
2022-11-20T06:46:02.343Z,20.42
2022-11-20T06:48:30.058Z,26.50
2022-11-20T06:50:58.274Z,21.75
2022-11-20T06:53:26.014Z,22.33
2022-11-20T06:55:54.021Z,23.38
2022-11-20T06:58:21.304Z,23.02
2022-11-20T07:00:48.448Z,27.25
2022-11-20T07:03:15.842Z,59.13
2022-11-20T07:05:42.975Z,161.07
2022-11-20T07:08:10.325Z,74.13
2022-11-20T07:10:37.673Z,24.00
2022-11-20T07:13:04.914Z,27.73
2022-11-20T07:15:32.404Z,31.08
2022-11-20T07:18:02.945Z,22.77
2022-11-20T07:20:30.190Z,19.75
2022-11-20T07:22:58.457Z,27.40
2022-11-20T07:25:27.100Z,23.40
2022-11-20T07:27:58.403Z,22.75
2022-11-20T07:30:26.330Z,19.63
2022-11-20T07:32:55.225Z,25.35
2022-11-20T07:35:23.396Z,27.38
2022-11-20T07:37:50.636Z,24.88
2022-11-20T07:40:18.628Z,26.10
2022-11-20T07:42:53.478Z,30.83
2022-11-20T07:45:22.254Z,25.40
2022-11-20T07:47:49.687Z,26.00
2022-11-20T07:50:17.555Z,25.20
2022-11-20T07:52:44.742Z,24.77
2022-11-20T07:55:12.489Z,25.42
2022-11-20T07:57:40.368Z,23.52
2022-11-20T08:00:12.346Z,24.60
2022-11-20T08:02:42.954Z,26.05
2022-11-20T08:05:10.744Z,24.10
2022-11-20T08:07:39.414Z,21.90
2022-11-20T08:10:07.858Z,28.38
2022-11-20T08:12:53.688Z,24.63
2022-11-20T08:15:20.979Z,26.25
2022-11-20T08:18:08.192Z,26.30
2022-11-20T08:20:36.009Z,27.15
2022-11-20T08:23:06.798Z,25.40
2022-11-20T08:25:36.068Z,26.42
2022-11-20T08:28:18.409Z,27.20
2022-11-20T08:33:15.378Z,21.70
2022-11-20T08:35:43.780Z,20.08
2022-11-20T08:38:11.329Z,22.65
2022-11-20T08:40:38.634Z,23.05
2022-11-20T08:43:05.872Z,27.35
2022-11-20T08:45:34.910Z,24.23
2022-11-20T08:48:06.003Z,31.38
2022-11-20T08:50:34.196Z,24.85
2022-11-20T08:53:05.721Z,21.10
2022-11-20T08:55:33.075Z,26.52
2022-11-20T08:58:04.774Z,26.02
2022-11-20T09:00:32.410Z,23.88
2022-11-20T09:03:02.584Z,25.85
2022-11-20T09:05:30.117Z,23.42
2022-11-20T09:08:01.094Z,25.85
2022-11-20T09:10:29.019Z,22.25
2022-11-20T09:12:56.690Z,20.27
2022-11-20T09:15:25.292Z,27.38
2022-11-20T09:17:57.830Z,23.17
2022-11-20T09:20:25.712Z,23.50
2022-11-20T09:22:53.017Z,22.08
2022-11-20T09:25:20.747Z,23.63
2022-11-20T09:27:48.510Z,25.38
2022-11-20T09:30:16.646Z,24.80
2022-11-20T09:32:44.507Z,103.03
2022-11-20T09:35:13.087Z,27.80
2022-11-20T09:37:40.304Z,32.42
2022-11-20T09:40:18.548Z,24.50
2022-11-20T09:43:08.672Z,22.67
2022-11-20T09:46:03.227Z,19.42
2022-11-20T09:48:48.696Z,26.92
2022-11-20T09:51:43.036Z,28.80
2022-11-20T09:54:27.910Z,24.00
2022-11-20T09:57:01.950Z,23.48
2022-11-20T09:59:46.073Z,24.05
2022-11-20T10:02:43.552Z,23.27
2022-11-20T10:05:22.475Z,22.55
2022-11-20T10:07:59.156Z,19.65
2022-11-20T10:10:39.765Z,24.63
2022-11-20T10:13:34.497Z,20.27
2022-11-20T10:16:30.695Z,19.85
2022-11-20T10:19:16.475Z,19.35
2022-11-20T10:21:57.007Z,18.15
2022-11-20T10:24:36.137Z,18.63
2022-11-20T10:27:17.647Z,20.90
2022-11-20T10:29:49.333Z,17.48
2022-11-20T10:32:38.195Z,22.70
2022-11-20T10:35:23.468Z,20.80
2022-11-20T10:38:03.247Z,23.30
2022-11-20T10:40:39.202Z,24.83
2022-11-20T10:43:20.806Z,21.73
2022-11-20T10:46:05.286Z,21.92
2022-11-20T10:48:33.731Z,22.17
2022-11-20T10:51:26.672Z,21.10
2022-11-20T10:54:19.816Z,24.73
2022-11-20T10:56:50.556Z,24.98
2022-11-20T10:59:32.115Z,24.00
2022-11-20T11:02:02.655Z,24.55
2022-11-20T11:04:39.318Z,24.77
2022-11-20T11:07:16.268Z,30.05
2022-11-20T11:09:48.459Z,22.73
2022-11-20T11:12:15.936Z,25.80
2022-11-20T11:14:44.832Z,23.55
2022-11-20T11:17:21.564Z,27.88
2022-11-20T11:20:03.250Z,27.73
2022-11-20T11:22:33.317Z,24.75
2022-11-20T11:25:01.209Z,26.27
2022-11-20T11:27:28.985Z,24.55
2022-11-20T11:30:16.092Z,26.55
2022-11-20T11:32:43.724Z,30.48
2022-11-20T11:35:49.711Z,21.75
2022-11-20T11:38:33.874Z,25.00
2022-11-20T11:41:02.041Z,24.45
2022-11-20T11:43:54.217Z,24.08
2022-11-20T11:46:21.435Z,23.90
2022-11-20T11:49:14.851Z,32.50
2022-11-20T11:52:06.002Z,28.60
2022-11-20T11:54:36.789Z,26.60
2022-11-20T11:57:12.283Z,24.73
2022-11-20T12:00:16.704Z,26.40
2022-11-20T12:02:47.458Z,22.60
2022-11-20T12:05:30.638Z,21.17
2022-11-20T12:08:08.132Z,24.25
2022-11-20T12:11:05.393Z,24.02
2022-11-20T12:13:35.354Z,27.05
2022-11-20T12:16:04.632Z,27.10
2022-11-20T12:18:32.804Z,23.20
2022-11-20T12:21:14.668Z,23.98
2022-11-20T12:24:03.119Z,22.77
2022-11-20T12:26:32.958Z,23.52
2022-11-20T12:29:18.808Z,22.13
2022-11-20T12:32:07.389Z,23.05
2022-11-20T12:34:45.114Z,21.77
2022-11-20T12:37:33.542Z,24.38
2022-11-20T12:40:16.441Z,23.25
2022-11-20T12:43:36.630Z,27.70
2022-11-20T12:46:27.945Z,24.42
2022-11-20T12:49:19.579Z,27.02
2022-11-20T12:52:05.636Z,21.48
2022-11-20T12:54:47.858Z,25.63
2022-11-20T12:57:27.427Z,25.27
2022-11-20T13:00:12.718Z,23.65
2022-11-20T13:02:39.976Z,23.35
2022-11-20T13:05:13.013Z,24.30
2022-11-20T13:07:41.454Z,23.80
2022-11-20T13:10:19.578Z,25.45
2022-11-20T13:12:56.118Z,23.48
2022-11-20T13:16:05.793Z,22.92
2022-11-20T13:18:40.828Z,22.83
2022-11-20T13:21:18.624Z,23.05
2022-11-20T13:23:45.893Z,26.10
2022-11-20T13:26:23.322Z,25.05
2022-11-20T13:29:10.606Z,23.60
2022-11-20T13:31:41.239Z,24.90
2022-11-20T13:34:15.683Z,28.95
2022-11-20T13:36:54.344Z,25.83
2022-11-20T13:39:29.870Z,23.40
2022-11-20T13:42:01.512Z,21.38
2022-11-20T13:44:39.033Z,19.35
2022-11-20T13:47:23.445Z,28.33
2022-11-20T13:49:52.326Z,24.02
2022-11-20T13:52:35.755Z,25.65
2022-11-20T13:55:27.281Z,24.45
2022-11-20T13:58:21.272Z,24.80
2022-11-20T14:01:02.890Z,26.63
2022-11-20T14:04:04.696Z,21.95
2022-11-20T14:06:35.308Z,21.35
2022-11-20T14:09:02.644Z,22.65
2022-11-20T14:11:31.885Z,21.88
2022-11-20T14:14:06.279Z,28.25
2022-11-20T14:16:36.182Z,23.48
2022-11-20T14:19:21.380Z,26.20
2022-11-20T14:21:49.838Z,23.70
2022-11-20T14:24:26.657Z,29.13
2022-11-20T14:26:55.033Z,27.83
2022-11-20T14:29:36.900Z,26.13
2022-11-20T14:32:07.349Z,21.65
2022-11-20T14:34:39.689Z,25.52
2022-11-20T14:37:16.884Z,23.63
2022-11-20T14:39:51.040Z,27.05
2022-11-20T14:42:23.704Z,25.00
2022-11-20T14:44:53.814Z,24.83
2022-11-20T14:47:23.716Z,26.98
2022-11-20T14:49:53.176Z,25.75
2022-11-20T14:52:23.097Z,26.63
2022-11-20T14:55:01.661Z,25.25
2022-11-20T14:57:28.876Z,22.17
2022-11-20T15:00:12.993Z,23.90
2022-11-20T15:02:44.988Z,24.40
2022-11-20T15:05:12.525Z,24.77
2022-11-20T15:07:46.883Z,24.98
2022-11-20T15:10:20.213Z,28.88
2022-11-20T15:12:53.411Z,23.73
2022-11-20T15:15:36.329Z,25.90
2022-11-20T15:18:05.420Z,23.02
2022-11-20T15:20:34.504Z,24.88
2022-11-20T15:23:01.937Z,29.02
2022-11-20T15:25:29.503Z,28.88
2022-11-20T15:27:58.207Z,24.23
2022-11-20T15:30:25.853Z,23.33
2022-11-20T15:32:53.299Z,30.30
2022-11-20T15:35:20.623Z,25.90
2022-11-20T15:37:47.905Z,28.95
2022-11-20T15:40:15.757Z,26.30
2022-11-20T15:43:03.295Z,28.63
2022-11-20T15:45:54.308Z,21.00
2022-11-20T15:48:25.934Z,21.27
2022-11-20T15:51:10.794Z,34.05
2022-11-20T15:53:39.042Z,28.48
2022-11-20T15:56:06.389Z,25.80
2022-11-20T15:58:33.678Z,27.00
2022-11-20T16:01:01.020Z,26.20
2022-11-20T16:03:28.229Z,22.90
2022-11-20T16:05:55.477Z,29.35
2022-11-20T16:08:22.763Z,25.17
2022-11-20T16:10:49.940Z,27.70
2022-11-20T16:13:38.209Z,27.88
2022-11-20T16:16:10.383Z,27.23
2022-11-20T16:18:37.766Z,25.52
2022-11-20T16:21:05.050Z,22.75
2022-11-20T16:23:32.392Z,21.95
2022-11-20T16:25:59.731Z,25.70
2022-11-20T16:28:27.287Z,27.77
2022-11-20T16:30:54.479Z,23.55
2022-11-20T16:33:22.796Z,28.40
2022-11-20T16:35:50.200Z,25.30
2022-11-20T16:38:17.401Z,29.35
2022-11-20T16:40:44.699Z,29.23
2022-11-20T16:43:14.879Z,23.75
2022-11-20T16:45:44.082Z,22.80
2022-11-20T16:48:16.833Z,24.30
2022-11-20T16:50:54.251Z,26.58
2022-11-20T16:53:23.479Z,20.00
2022-11-20T16:55:50.680Z,20.17
2022-11-20T16:58:18.003Z,22.17
2022-11-20T17:00:51.425Z,17.13
2022-11-20T17:03:19.581Z,16.15
2022-11-20T17:05:49.232Z,12.00
2022-11-20T17:08:16.655Z,15.68
2022-11-20T17:10:43.997Z,19.15
2022-11-20T17:13:11.551Z,14.60
2022-11-20T17:15:38.790Z,16.65
2022-11-20T17:18:06.158Z,15.32
2022-11-20T17:20:33.448Z,14.18
2022-11-20T17:23:01.632Z,16.25
2022-11-20T17:25:28.947Z,11.38
2022-11-20T17:27:57.501Z,10.55
2022-11-20T17:30:24.873Z,12.20
2022-11-20T17:32:52.159Z,10.43
2022-11-20T17:35:19.469Z,11.65
2022-11-20T17:37:46.984Z,9.38
2022-11-20T17:40:14.280Z,11.88
2022-11-20T17:42:41.638Z,10.73
2022-11-20T17:45:08.954Z,10.82
2022-11-20T17:47:39.531Z,10.02
2022-11-20T17:50:07.323Z,9.50
2022-11-20T17:52:34.583Z,9.45
2022-11-20T17:55:02.058Z,10.55
2022-11-20T17:57:48.323Z,12.40
2022-11-20T18:00:17.993Z,11.98
2022-11-20T18:02:45.259Z,8.40
2022-11-20T18:05:12.559Z,10.02
2022-11-20T18:07:41.781Z,10.35
2022-11-20T18:10:10.129Z,13.30
2022-11-20T18:12:37.476Z,14.68
2022-11-20T18:15:05.072Z,14.77
2022-11-20T18:17:32.295Z,11.93
2022-11-20T18:20:28.589Z,12.85
2022-11-20T18:22:48.093Z,13.88
2022-11-20T18:25:15.442Z,15.02
2022-11-20T18:27:44.112Z,15.07
2022-11-20T18:30:13.322Z,13.07
2022-11-20T18:32:40.600Z,8.75
2022-11-20T18:35:08.348Z,9.35
2022-11-20T18:37:36.104Z,8.70
2022-11-20T18:40:03.814Z,6.68
2022-11-20T18:42:51.332Z,7.32
2022-11-20T18:45:19.988Z,7.05
2022-11-20T18:47:47.164Z,5.70
2022-11-20T18:50:14.728Z,8.23
2022-11-20T18:52:44.936Z,7.07
2022-11-20T18:55:13.116Z,7.50
2022-11-20T18:57:40.585Z,8.10
2022-11-20T19:00:10.053Z,9.65
2022-11-20T19:02:42.024Z,10.05
2022-11-20T19:05:11.769Z,7.70
2022-11-20T19:07:39.328Z,7.05
2022-11-20T19:10:07.145Z,7.93
2022-11-20T19:12:34.323Z,7.20
2022-11-20T19:15:01.565Z,8.43
2022-11-20T19:17:28.736Z,8.18
2022-11-20T19:19:56.098Z,7.57
2022-11-20T19:22:23.605Z,9.00
2022-11-20T19:24:53.387Z,8.52
2022-11-20T19:27:20.589Z,13.35
2022-11-20T19:29:47.935Z,8.70
2022-11-20T19:32:16.688Z,9.05
2022-11-20T19:34:45.106Z,8.75
2022-11-20T19:37:13.636Z,12.32
2022-11-20T19:39:40.872Z,8.52
2022-11-20T19:42:08.255Z,7.95
2022-11-20T19:44:35.594Z,9.57
2022-11-20T19:47:04.575Z,7.70
2022-11-20T19:49:34.061Z,11.02
2022-11-20T19:52:01.750Z,9.32
2022-11-20T19:54:29.260Z,12.18
2022-11-20T19:57:04.156Z,14.25
2022-11-20T19:59:32.609Z,15.38
2022-11-20T20:02:02.381Z,13.68
2022-11-20T20:04:32.239Z,23.00
2022-11-20T20:07:02.767Z,13.43
2022-11-20T20:09:31.176Z,13.02
2022-11-20T20:11:59.553Z,17.45
2022-11-20T20:14:27.025Z,23.17
2022-11-20T20:16:55.507Z,16.13
2022-11-20T20:19:23.121Z,12.52
2022-11-20T20:21:50.738Z,21.30
2022-11-20T20:24:18.061Z,15.57
2022-11-20T20:26:45.246Z,20.15
2022-11-20T20:29:12.728Z,16.67
2022-11-20T20:31:40.518Z,18.50
2022-11-20T20:34:07.695Z,18.65
2022-11-20T20:36:35.111Z,14.60
2022-11-20T20:39:05.189Z,16.60
2022-11-20T20:41:32.854Z,10.85
2022-11-20T20:44:19.890Z,12.65
2022-11-20T20:46:47.955Z,9.85
2022-11-20T20:49:15.251Z,14.07
2022-11-20T20:51:42.571Z,14.88
2022-11-20T20:54:13.113Z,25.55
2022-11-20T20:56:42.714Z,10.23
2022-11-20T20:59:09.933Z,16.85
2022-11-20T21:01:37.265Z,17.35
2022-11-20T21:04:06.228Z,14.32
2022-11-20T21:06:33.645Z,12.60
2022-11-20T21:09:01.918Z,14.02
2022-11-20T21:11:29.127Z,12.95
2022-11-20T21:13:56.510Z,7.97
2022-11-20T21:16:25.306Z,14.75
2022-11-20T21:18:52.537Z,15.55
2022-11-20T21:21:38.533Z,13.80
2022-11-20T21:24:11.703Z,14.57
2022-11-20T21:26:39.004Z,14.13
2022-11-20T21:29:06.165Z,10.10
2022-11-20T21:31:33.408Z,12.05
2022-11-20T21:34:01.638Z,14.27
2022-11-20T21:36:30.545Z,10.30
2022-11-20T21:38:59.766Z,12.32
2022-11-20T21:41:28.551Z,12.30
2022-11-20T21:46:46.387Z,16.63
2022-11-20T21:49:15.430Z,10.60
2022-11-20T21:51:42.760Z,9.80
2022-11-20T21:54:11.046Z,9.40
2022-11-20T21:56:39.130Z,12.52
2022-11-20T21:59:06.452Z,15.73
2022-11-20T22:01:33.990Z,9.57
2022-11-20T22:04:03.009Z,13.93
2022-11-20T22:06:32.939Z,11.75
2022-11-20T22:09:01.539Z,10.38
2022-11-20T22:11:28.982Z,12.75
2022-11-20T22:14:14.856Z,12.27
2022-11-20T22:16:42.005Z,13.70
2022-11-20T22:19:09.630Z,6.82
2022-11-20T22:21:40.432Z,10.65
2022-11-20T22:24:08.486Z,14.73
2022-11-20T22:26:40.320Z,8.57
2022-11-20T22:29:12.770Z,11.02
2022-11-20T22:31:39.943Z,11.57
2022-11-20T22:34:07.403Z,16.02
2022-11-20T22:36:37.597Z,9.65
2022-11-20T22:39:05.757Z,10.00
2022-11-20T22:41:33.621Z,13.25
2022-11-20T22:44:05.973Z,9.35
2022-11-20T22:46:35.783Z,9.38
2022-11-20T22:49:06.430Z,16.35
2022-11-20T22:51:35.902Z,14.93
2022-11-20T22:54:03.822Z,12.68
2022-11-20T22:56:31.660Z,11.48
2022-11-20T22:58:59.258Z,16.65
2022-11-20T23:01:28.869Z,18.27
2022-11-20T23:03:58.686Z,8.95
2022-11-20T23:06:26.337Z,15.43
2022-11-20T23:08:54.277Z,14.07
2022-11-20T23:11:24.429Z,12.50
2022-11-20T23:13:59.329Z,18.52
2022-11-20T23:16:28.604Z,14.07
2022-11-20T23:18:57.808Z,11.75
2022-11-20T23:21:25.773Z,15.80
2022-11-20T23:23:55.808Z,10.32
2022-11-20T23:26:25.116Z,12.82
2022-11-20T23:28:54.940Z,10.15
2022-11-20T23:31:22.475Z,13.13
2022-11-20T23:33:49.919Z,13.85
2022-11-20T23:36:17.284Z,16.25
2022-11-20T23:38:44.688Z,13.82
2022-11-20T23:41:12.859Z,15.68
2022-11-20T23:43:40.122Z,11.07
2022-11-20T23:46:07.724Z,18.15
2022-11-20T23:48:37.480Z,10.38
2022-11-20T23:51:06.414Z,16.42
2022-11-20T23:53:34.222Z,14.65
2022-11-20T23:56:04.565Z,14.23
2022-11-20T23:58:37.492Z,12.10
